首页
METAR-TAF:

METAR-TAF

机场 :

迪奥里·哈马尼国际机场

尼亞美, 尼日尔

纬度: 13-29N, 经度: 002-10E, 海拔: 223米

当前天气观测

该预报发布于1小时和13分钟前的01:00 UTC
风速7节,风向南转西南
温度 33°C
湿度 46%
气压 1009 hPa
能见度10公里或以上
1500米以下无云,无积雨云

METAR: DRRN 310100Z 21007KT CAVOK 33/20 Q1009 NOSIG

时间: 03:13 (02:13 UTC)

预报

该预报发布于3小时和13分钟前的23:00 UTC
预报有效从31日的 00点(UTC)到 01日的 06点(UTC)
风速8节,风向西南
能见度10公里或以上
1500米以下无云,无积雨云
成为
从 31日的 04点(UTC)到 31日的 05点(UTC)
风速20节,风向东转东南
能見度: 4000
多云层高于1400英尺
高吹尘, 雷暴, 雨
短暂存在
从 31日的 05点(UTC)到 31日的 06点(UTC)
风速30节,风向东转东南,有时为50节阵风
能見度: 0100
从 31日的 0900点(UTC)
风速5节,风向南转西南
能见度10公里或以上
少量云层高于2000英尺

TAF: DRRN 302300Z 3100/0106 22008KT CAVOK BECMG 3104/3105 12020KT 4000 BLDU TSRA BKN014 ST030CB TEMPO 3105/3106 12030G50KT 0100 SQ DS FM310900 20005KT 9999 FEW020

超过4000个机场的气象观测和天气预报(METAR&TAF报告)。

可查询的气象台以黄色和红色小点在地图上表示。

将鼠标移到小点上方,可查看气象台名称。

然后点击查看天气观测和预报。

如需切换地图:点击带黑十字的绿色按钮放大地图;点击带横线的绿色按钮缩小地图;或者点击绿色箭头查看邻近地区的地图。


METAR-TAF: